Time;durP1;ratioP1;P1;durP2;ratioP2;P2;SDS_P1;SDS_P2;PMS_P1;PMS_P2;Temp;Humidity;BMP_temperature;BMP_pressure;BME280_temperature;BME280_humidity;BME280_pressure;Samples;Min_cycle;Max_cycle;Signal;HPM_P1;HPM_P2
2021/05/17 00:00:46;;;;;;;;;;;17.50;99.90;;;16.99;100.00;100993.38;5032567;28;20078;-64
2021/05/17 00:03:14;;;;;;;;;;;17.40;99.90;;;16.99;100.00;100990.63;5032539;28;20370;-64
2021/05/17 00:05:42;;;;;;;;;;;17.40;99.90;;;16.97;100.00;100988.22;5031847;28;19929;-64
2021/05/17 00:08:10;;;;;;;;;;;17.40;99.90;;;16.97;100.00;100990.13;5031337;28;19929;-65
2021/05/17 00:10:37;;;;;;;;;;;17.50;99.90;;;16.98;100.00;100987.09;5032257;28;19925;-65
2021/05/17 00:13:05;;;;;;;;;;;17.50;99.90;;;17.04;100.00;100998.63;5032121;28;20310;-64
2021/05/17 00:15:33;;;;;;;;;;;17.50;99.90;;;17.03;100.00;100992.38;5031914;28;19925;-64
2021/05/17 00:18:01;;;;;;;;;;;17.50;99.90;;;17.07;100.00;100989.78;5031009;28;19925;-64
2021/05/17 00:20:28;;;;;;;;;;;17.50;99.90;;;17.07;100.00;100985.13;5032333;28;19925;-65
2021/05/17 00:22:56;;;;;;;;;;;17.60;99.90;;;17.10;100.00;100980.94;5032211;28;19925;-64
2021/05/17 00:25:24;;;;;;;;;;;17.50;99.90;;;17.09;100.00;100988.31;5031872;28;19929;-65
2021/05/17 00:27:52;;;;;;;;;;;17.50;99.90;;;17.09;100.00;100980.13;5030882;28;19925;-65
2021/05/17 00:30:20;;;;;;;;;;;;;;;17.09;100.00;100984.78;5032085;28;20363;-62
2021/05/17 00:32:48;;;;;;;;;;;17.50;99.90;;;17.05;100.00;100984.66;5032200;28;19926;-62
2021/05/17 00:35:16;;;;;;;;;;;17.50;99.90;;;17.05;100.00;100978.38;5031924;28;19929;-63
2021/05/17 00:37:44;;;;;;;;;;;17.50;99.90;;;17.03;100.00;100984.16;5030898;28;20337;-62
2021/05/17 00:40:12;;;;;;;;;;;17.50;99.90;;;17.01;100.00;100991.91;5032023;28;20279;-62
2021/05/17 00:42:40;;;;;;;;;;;17.50;99.90;;;17.00;100.00;100990.28;5032101;28;20363;-63
2021/05/17 00:45:10;;;;;;;;;;;17.50;99.90;;;16.99;100.00;100987.91;5031662;28;19932;-63
2021/05/17 00:47:40;;;;;;;;;;;17.40;99.90;;;16.96;100.00;100992.09;5030594;28;19971;-63
2021/05/17 00:50:10;;;;;;;;;;;17.40;99.90;;;16.95;100.00;100993.22;5031976;28;19931;-65
2021/05/17 00:52:37;;;;;;;;;;;17.40;99.90;;;16.92;100.00;100980.22;5031802;28;19947;-64
2021/05/17 00:55:07;;;;;;;;;;;17.40;99.90;;;16.92;100.00;100994.69;5031899;28;20345;-63
2021/05/17 00:57:35;;;;;;;;;;;17.40;99.90;;;16.87;100.00;100992.09;5030573;28;19925;-62
2021/05/17 01:00:05;;;;;;;;;;;17.30;99.90;;;16.88;100.00;100985.53;5032029;28;20374;-64
2021/05/17 01:02:32;;;;;;;;;;;17.30;99.90;;;16.87;100.00;100985.88;5031770;28;19987;-62
2021/05/17 01:04:59;;;;;;;;;;;17.30;99.90;;;16.86;100.00;100990.53;5031602;28;19933;-64
2021/05/17 01:07:29;;;;;;;;;;;17.30;99.90;;;16.88;100.00;100980.06;5030493;28;19979;-62
2021/05/17 01:09:58;;;;;;;;;;;17.40;99.90;;;16.90;100.00;100985.97;5031868;28;19931;-63
2021/05/17 01:12:26;;;;;;;;;;;17.40;99.90;;;16.91;100.00;100984.06;5031794;28;19929;-63
2021/05/17 01:14:57;;;;;;;;;;;17.40;99.90;;;16.91;100.00;100982.13;5031642;28;19986;-63
2021/05/17 01:17:25;;;;;;;;;;;17.40;99.90;;;16.90;100.00;100985.22;5030312;28;19932;-63
2021/05/17 01:20:04;;;;;;;;;;;17.30;99.90;;;16.90;100.00;100979.75;5031710;28;20388;-62
2021/05/17 01:22:38;;;;;;;;;;;17.40;99.90;;;16.90;100.00;100977.78;5031696;28;19926;-64
2021/05/17 01:25:08;;;;;;;;;;;17.40;99.90;;;16.88;100.00;100974.59;5034551;28;19929;-64
2021/05/17 01:27:36;;;;;;;;;;;17.40;99.90;;;16.87;100.00;100972.97;5033934;28;19925;-63
2021/05/17 01:30:04;;;;;;;;;;;;;;;16.87;100.00;100961.28;5035297;28;20023;-63
2021/05/17 01:32:32;;;;;;;;;;;17.30;99.90;;;16.83;100.00;100968.53;5035019;28;19926;-62
2021/05/17 01:35:00;;;;;;;;;;;17.30;99.90;;;16.81;100.00;100948.94;5035126;28;19975;-62
2021/05/17 01:37:29;;;;;;;;;;;17.30;99.90;;;16.78;100.00;100957.75;5033779;28;19925;-62
2021/05/17 01:39:57;;;;;;;;;;;17.20;99.90;;;16.73;100.00;100944.28;5035075;28;19971;-62
2021/05/17 01:42:25;;;;;;;;;;;17.20;99.90;;;16.68;100.00;100948.03;5034950;28;19932;-63
2021/05/17 01:44:53;;;;;;;;;;;17.20;99.90;;;16.66;100.00;100941.25;5034633;28;19929;-63
2021/05/17 01:47:23;;;;;;;;;;;17.10;99.90;;;16.64;100.00;100944.34;5033434;28;20012;-62
2021/05/17 01:49:52;;;;;;;;;;;17.10;99.90;;;16.64;100.00;100940.81;5035049;28;19925;-62
2021/05/17 01:52:19;;;;;;;;;;;17.10;99.90;;;16.66;100.00;100936.59;5034881;28;19987;-63
2021/05/17 01:54:49;;;;;;;;;;;17.10;99.90;;;16.68;100.00;100934.38;5034554;28;19925;-62
2021/05/17 01:57:16;;;;;;;;;;;17.10;99.90;;;16.66;100.00;100939.34;5033460;28;20059;-63
2021/05/17 01:59:45;;;;;;;;;;;17.10;99.90;;;16.66;100.00;100935.81;5034721;28;19932;-63
2021/05/17 02:02:13;;;;;;;;;;;17.10;99.90;;;16.64;100.00;100949.00;5034544;28;20366;-62
2021/05/17 02:04:40;;;;;;;;;;;17.10;99.90;;;16.61;100.00;100938.72;5034389;28;20142;-62
2021/05/17 02:07:08;;;;;;;;;;;17.10;99.90;;;16.57;100.00;100937.75;5033192;28;19932;-63
2021/05/17 02:09:38;;;;;;;;;;;17.00;99.90;;;16.56;100.00;100945.19;5034324;28;20433;-63
2021/05/17 02:12:06;;;;;;;;;;;17.00;99.90;;;16.47;100.00;100936.19;5034403;28;19936;-62
2021/05/17 02:14:34;;;;;;;;;;;;;;;16.43;100.00;100935.22;5034394;28;19951;-63
2021/05/17 02:17:03;;;;;;;;;;;16.90;99.90;;;16.39;100.00;100951.44;5032857;28;19925;-64
2021/05/17 02:19:31;;;;;;;;;;;16.80;99.90;;;16.35;100.00;100953.22;5034082;28;19975;-62
2021/05/17 02:21:58;;;;;;;;;;;16.80;99.90;;;16.34;100.00;100950.81;5034172;28;19929;-63
2021/05/17 02:24:26;;;;;;;;;;;16.80;99.90;;;16.32;100.00;100950.34;5034155;28;19932;-62
2021/05/17 02:26:53;;;;;;;;;;;16.80;99.90;;;16.31;100.00;100952.28;5032980;28;19929;-63
2021/05/17 02:29:21;;;;;;;;;;;16.80;99.90;;;16.32;100.00;100956.59;5034032;28;19929;-63
2021/05/17 02:31:48;;;;;;;;;;;16.80;99.90;;;16.38;100.00;100957.25;5034115;28;19925;-62
2021/05/17 02:34:17;;;;;;;;;;;16.80;99.90;;;16.38;100.00;100949.06;5033738;28;20000;-65
2021/05/17 02:36:45;;;;;;;;;;;16.80;99.90;;;16.32;100.00;100945.66;5033024;28;19983;-62
2021/05/17 02:39:12;;;;;;;;;;;;;;;16.30;100.00;100953.41;5033848;28;19925;-62
2021/05/17 02:41:41;;;;;;;;;;;16.70;99.90;;;16.23;100.00;100957.75;5033965;28;19936;-65
2021/05/17 02:44:10;;;;;;;;;;;16.60;99.90;;;16.16;100.00;100938.34;5033946;28;20036;-64
2021/05/17 02:46:38;;;;;;;;;;;16.60;99.90;;;16.11;100.00;100946.72;5032698;28;19933;-65
2021/05/17 02:49:06;;;;;;;;;;;16.50;99.90;;;16.03;100.00;100951.03;5033277;28;19929;-63
2021/05/17 02:51:35;;;;;;;;;;;16.40;99.90;;;15.95;100.00;100951.84;5033645;28;19933;-63
2021/05/17 02:54:27;;;;;;;;;;;16.40;99.90;;;15.89;100.00;100955.88;5033794;28;19925;-63
2021/05/17 02:57:12;;;;;;;;;;;16.30;99.90;;;15.82;100.00;100955.53;5032404;28;19936;-63
2021/05/17 03:00:12;;;;;;;;;;;16.20;99.90;;;15.78;100.00;100949.91;5033385;28;19929;-63
2021/05/17 03:02:56;;;;;;;;;;;16.20;99.90;;;15.75;100.00;100955.22;5033569;28;19928;-62
2021/05/17 03:05:23;;;;;;;;;;;16.10;99.90;;;15.67;100.00;100964.19;5024572;28;19925;-63
2021/05/17 03:07:59;;;;;;;;;;;16.10;99.90;;;15.64;100.00;100964.84;5032218;28;20349;-64
2021/05/17 03:10:29;;;;;;;;;;;16.10;99.90;;;15.60;100.00;100961.94;5033307;28;19965;-62
2021/05/17 03:12:58;;;;;;;;;;;;;;;15.59;100.00;100962.28;5033367;28;20023;-62
2021/05/17 03:15:27;;;;;;;;;;;16.00;99.90;;;15.59;100.00;100959.56;5033258;28;19925;-63
2021/05/17 03:17:56;;;;;;;;;;;;;;;15.50;100.00;100965.00;5032151;28;20449;-62
2021/05/17 03:20:24;;;;;;;;;;;15.90;99.90;;;15.44;100.00;100968.94;5032882;28;19952;-64
2021/05/17 03:22:52;;;;;;;;;;;15.90;99.90;;;15.43;100.00;100972.81;5033244;28;19932;-63
2021/05/17 03:25:24;;;;;;;;;;;15.90;99.90;;;15.40;100.00;100978.09;5032915;28;19932;-63
2021/05/17 03:27:52;;;;;;;;;;;15.80;99.90;;;15.38;100.00;100975.66;5032121;28;19948;-63
2021/05/17 03:30:19;;;;;;;;;;;15.80;99.90;;;15.30;100.00;100979.19;5032926;28;19995;-63
2021/05/17 03:32:47;;;;;;;;;;;15.80;99.90;;;15.26;100.00;100980.94;5032960;28;19937;-63
2021/05/17 03:35:14;;;;;;;;;;;15.70;99.90;;;15.23;100.00;100985.09;5032380;28;19925;-63
2021/05/17 03:37:42;;;;;;;;;;;15.70;99.90;;;15.19;100.00;100981.41;5031871;28;19979;-63
2021/05/17 03:40:10;;;;;;;;;;;15.60;99.90;;;15.10;100.00;100977.06;5032688;28;19929;-63
2021/05/17 03:42:39;;;;;;;;;;;15.50;99.90;;;15.00;100.00;100977.34;5032906;28;19929;-63
2021/05/17 03:45:08;;;;;;;;;;;15.40;99.90;;;14.87;100.00;100976.31;5032664;28;19979;-63
2021/05/17 03:47:36;;;;;;;;;;;15.20;99.90;;;14.82;100.00;100981.09;5030988;28;19932;-63
2021/05/17 03:50:05;;;;;;;;;;;15.10;99.90;;;14.67;100.00;100985.84;5032489;28;20341;-63
2021/05/17 03:52:32;;;;;;;;;;;15.00;99.90;;;14.61;100.00;100986.28;5032716;28;19925;-63
2021/05/17 03:55:00;;;;;;;;;;;15.00;99.90;;;14.58;100.00;100984.19;5032581;28;19980;-63
2021/05/17 03:57:27;;;;;;;;;;;14.90;99.90;;;14.56;100.00;100981.78;5031675;28;19925;-63
2021/05/17 03:59:55;;;;;;;;;;;14.80;99.90;;;14.57;100.00;100988.84;5032245;28;19925;-64
2021/05/17 04:02:24;;;;;;;;;;;14.80;99.90;;;14.54;100.00;100991.38;5032558;28;19929;-63
2021/05/17 04:04:59;;;;;;;;;;;14.80;99.90;;;14.52;100.00;100990.88;5032272;28;19925;-63
2021/05/17 04:15:42;;;;;;;;;;;14.80;99.90;;;14.48;100.00;101004.31;5032053;28;20290;-65
2021/05/17 04:18:09;;;;;;;;;;;14.80;99.90;;;14.42;100.00;101010.19;5031468;28;19930;-63
2021/05/17 04:20:37;;;;;;;;;;;14.70;99.90;;;14.41;100.00;101000.44;5031831;28;20287;-63
2021/05/17 04:23:04;;;;;;;;;;;14.70;99.90;;;14.40;100.00;101006.97;5032193;28;19925;-62
2021/05/17 04:25:32;;;;;;;;;;;14.70;99.90;;;14.37;100.00;101002.97;5032079;28;19932;-63
2021/05/17 04:27:59;;;;;;;;;;;14.70;99.90;;;14.36;100.00;101016.88;5031358;28;19936;-63
2021/05/17 04:30:26;;;;;;;;;;;14.70;99.90;;;14.35;100.00;101013.34;5031951;28;19925;-63
2021/05/17 04:32:54;;;;;;;;;;;14.70;99.90;;;14.34;100.00;101010.94;5032137;28;19925;-63
2021/05/17 04:35:22;;;;;;;;;;;14.70;99.90;;;14.31;100.00;101014.25;5031838;28;19925;-63
2021/05/17 04:37:49;;;;;;;;;;;14.60;99.90;;;14.30;100.00;101015.34;5031268;28;19933;-63
2021/05/17 04:40:16;;;;;;;;;;;14.60;99.90;;;14.27;100.00;101013.25;5032019;28;19925;-63
2021/05/17 04:42:44;;;;;;;;;;;14.60;99.90;;;14.26;100.00;101022.53;5032296;28;19963;-63
2021/05/17 04:45:12;;;;;;;;;;;14.60;99.90;;;14.18;99.97;101026.78;5031777;28;19925;-62
2021/05/17 04:47:39;;;;;;;;;;;14.50;99.90;;;14.09;100.00;101028.63;5031063;28;19925;-62
2021/05/17 04:50:09;;;;;;;;;;;14.50;99.90;;;14.00;100.00;101025.06;5031745;28;19925;-63
2021/05/17 04:52:37;;;;;;;;;;;14.40;99.90;;;13.89;100.00;101032.63;5032089;28;19925;-63
2021/05/17 04:55:05;;;;;;;;;;;14.30;99.90;;;13.81;100.00;101035.25;5031850;28;19948;-65
2021/05/17 04:57:32;;;;;;;;;;;14.30;99.90;;;13.77;100.00;101043.22;5031750;28;19925;-62
2021/05/17 04:59:59;;;;;;;;;;;14.20;99.90;;;13.72;100.00;101050.69;5035746;28;19929;-63
2021/05/17 05:02:27;;;;;;;;;;;14.20;99.90;;;13.63;100.00;101043.25;5035567;28;20386;-63
2021/05/17 05:04:54;;;;;;;;;;;14.10;99.90;;;13.58;100.00;101058.88;5035477;28;19925;-63
2021/05/17 05:07:22;;;;;;;;;;;14.10;99.90;;;13.57;100.00;101059.97;5034855;28;19933;-63
2021/05/17 05:09:49;;;;;;;;;;;14.10;99.90;;;13.69;100.00;101057.53;5035612;28;19936;-63
2021/05/17 05:12:16;;;;;;;;;;;14.10;99.90;;;13.77;99.71;101059.53;5035539;28;20194;-63
2021/05/17 05:14:44;;;;;;;;;;;14.20;99.90;;;13.73;97.55;101055.03;5035616;28;19925;-63
2021/05/17 05:17:11;;;;;;;;;;;14.10;99.90;;;13.66;97.51;101055.44;5034673;28;19932;-63
2021/05/17 05:19:38;;;;;;;;;;;14.00;99.90;;;13.57;96.55;101060.78;5035234;28;19983;-63
2021/05/17 05:22:06;;;;;;;;;;;13.90;99.90;;;13.49;96.61;101057.97;5035312;28;19925;-63
2021/05/17 05:24:34;;;;;;;;;;;13.80;99.90;;;13.49;96.31;101050.63;5035250;28;19929;-62
2021/05/17 05:27:08;;;;;;;;;;;13.80;99.90;;;13.46;95.80;101061.28;5034470;28;19925;-63
2021/05/17 05:29:53;;;;;;;;;;;13.80;99.90;;;13.49;95.13;101057.97;5035135;28;19926;-63
2021/05/17 05:32:28;;;;;;;;;;;13.80;99.90;;;13.44;93.89;101056.16;5035275;28;20015;-62
2021/05/17 05:34:55;;;;;;;;;;;13.70;99.90;;;13.45;93.15;101060.50;5035103;28;19983;-63
2021/05/17 05:37:23;;;;;;;;;;;13.70;99.90;;;13.48;92.15;101062.59;5034471;28;19925;-63
2021/05/17 05:39:51;;;;;;;;;;;13.80;99.90;;;13.52;90.66;101057.38;5035048;28;19936;-63
2021/05/17 05:42:18;;;;;;;;;;;13.80;99.90;;;13.75;89.48;101059.03;5034881;28;20390;-63
2021/05/17 05:44:47;;;;;;;;;;;13.90;99.90;;;13.91;87.35;101052.16;5035029;28;19925;-63
2021/05/17 05:47:16;;;;;;;;;;;14.40;99.90;;;14.44;84.60;101046.06;5034190;28;19925;-63
2021/05/17 05:49:44;;;;;;;;;;;14.90;99.90;;;15.67;77.33;101044.06;5034916;28;19925;-63
2021/05/17 05:52:11;;;;;;;;;;;15.60;99.90;;;16.82;70.24;101041.44;5034624;28;19971;-62
2021/05/17 05:54:39;;;;;;;;;;;18.00;99.90;;;17.86;65.24;101039.81;5034578;28;19929;-63
2021/05/17 05:57:08;;;;;;;;;;;18.70;99.90;;;18.99;60.62;101023.94;5033970;28;20310;-63
2021/05/17 05:59:35;;;;;;;;;;;19.80;99.90;;;20.13;56.11;101029.06;5034600;28;20020;-63
2021/05/17 06:02:03;;;;;;;;;;;20.10;99.90;;;21.19;52.07;101019.00;5034523;28;19925;-62
2021/05/17 06:04:30;;;;;;;;;;;21.30;99.90;;;22.23;48.17;101023.72;5034576;28;19933;-63
2021/05/17 06:06:57;;;;;;;;;;;21.70;99.90;;;23.60;45.92;101023.75;5033531;28;19925;-65
2021/05/17 06:09:25;;;;;;;;;;;23.30;99.90;;;24.61;42.19;101017.13;5033782;28;19928;-63
2021/05/17 06:11:53;;;;;;;;;;;23.70;99.90;;;25.12;40.55;101026.34;5034407;28;20391;-65
2021/05/17 06:14:22;;;;;;;;;;;23.80;99.90;;;25.84;38.73;101022.91;5034495;28;19929;-63
2021/05/17 06:16:50;;;;;;;;;;;24.80;99.90;;;26.22;37.88;101019.53;5033535;28;20008;-64
2021/05/17 06:19:18;;;;;;;;;;;24.90;99.90;;;26.73;36.65;101022.00;5034124;28;19925;-64
2021/05/17 06:21:46;;;;;;;;;;;25.30;99.90;;;27.44;35.49;101019.28;5034136;28;19968;-64
2021/05/17 06:24:18;;;;;;;;;;;26.30;99.90;;;28.15;34.34;101025.44;5034262;28;19925;-64
2021/05/17 06:26:46;;;;;;;;;;;26.50;99.90;;;28.45;33.67;101028.50;5033541;28;19925;-64
2021/05/17 06:29:14;;;;;;;;;;;27.00;99.90;;;28.58;32.66;101040.72;5033986;28;20405;-64
2021/05/17 06:31:45;;;;;;;;;;;27.80;99.90;;;28.45;33.53;101033.25;5034193;28;19925;-64
2021/05/17 06:34:13;;;;;;;;;;;27.80;99.90;;;28.37;33.42;101037.25;5034076;28;20516;-65
2021/05/17 06:36:41;;;;;;;;;;;27.90;99.90;;;28.13;33.36;101038.97;5033289;28;19932;-65
2021/05/17 06:39:09;;;;;;;;;;;28.00;99.90;;;28.11;33.37;101039.38;5033795;28;19932;-65
2021/05/17 06:41:37;;;;;;;;;;;28.00;99.90;;;27.50;34.96;101037.13;5034053;28;19926;-65
2021/05/17 06:44:05;;;;;;;;;;;27.90;99.90;;;27.51;34.48;101031.16;5033855;28;20429;-65
2021/05/17 06:46:33;;;;;;;;;;;28.00;99.90;;;27.43;35.04;101037.13;5032903;28;19929;-64
2021/05/17 06:49:02;;;;;;;;;;;28.10;99.90;;;27.13;34.80;101049.44;5033489;28;20369;-65
2021/05/17 06:51:29;;;;;;;;;;;28.30;99.90;;;27.12;35.56;101052.59;5033912;28;19932;-64
2021/05/17 06:54:00;;;;;;;;;;;28.20;99.90;;;27.16;35.90;101056.16;5033793;28;19925;-65
2021/05/17 06:56:36;;;;;;;;;;;28.20;99.90;;;26.75;36.38;101066.03;5033053;28;19925;-65
2021/05/17 06:59:04;;;;;;;;;;;28.30;99.90;;;25.80;37.76;101072.75;5033233;28;20461;-65
2021/05/17 07:01:31;;;;;;;;;;;28.20;99.90;;;24.83;39.36;101083.41;5033598;28;19929;-64
2021/05/17 07:03:59;;;;;;;;;;;27.70;99.90;;;23.87;41.48;101080.56;5033553;28;19925;-64
2021/05/17 07:06:31;;;;;;;;;;;26.90;99.90;;;23.19;42.13;101083.41;5032674;28;19932;-64
2021/05/17 07:11:47;;;;;;;;;;;24.40;99.90;;;22.34;45.49;101077.06;5033634;28;19979;-64
2021/05/17 07:14:15;;;;;;;;;;;;;;;21.99;46.33;101092.84;5033278;28;20086;-65
2021/05/17 07:16:42;;;;;;;;;;;22.70;99.90;;;21.60;47.44;101082.88;5032727;28;19948;-64
2021/05/17 07:19:10;;;;;;;;;;;22.20;99.90;;;21.34;48.97;101088.91;5032799;28;19928;-64
2021/05/17 07:24:24;;;;;;;;;;;21.50;99.90;;;20.82;50.02;101091.09;5033025;28;20278;-64
2021/05/17 07:26:51;;;;;;;;;;;21.20;99.90;;;20.73;51.77;101097.50;5032491;28;19932;-64
2021/05/17 07:29:19;;;;;;;;;;;20.90;99.90;;;20.80;51.90;101082.38;5032872;28;19937;-64
2021/05/17 07:31:47;;;;;;;;;;;21.00;99.90;;;20.78;49.86;101085.47;5033183;28;19960;-64
2021/05/17 07:34:14;;;;;;;;;;;21.10;99.90;;;20.85;50.74;101091.19;5032839;28;19925;-64
2021/05/17 07:36:42;;;;;;;;;;;21.10;99.90;;;20.94;50.86;101083.56;5032101;28;19933;-65
2021/05/17 07:39:10;;;;;;;;;;;21.20;99.90;;;20.90;49.78;101090.09;5032549;28;19960;-64
2021/05/17 07:41:37;;;;;;;;;;;21.30;99.90;;;20.96;50.89;101086.75;5032923;28;19925;-64
2021/05/17 07:44:05;;;;;;;;;;;21.30;99.90;;;21.05;49.93;101092.88;5032828;28;19925;-64
2021/05/17 07:46:33;;;;;;;;;;;21.40;99.90;;;21.25;50.67;101104.78;5031894;28;19929;-64
2021/05/17 07:49:08;;;;;;;;;;;21.50;99.90;;;21.44;50.42;101101.34;5032325;28;19929;-65
2021/05/17 07:51:35;;;;;;;;;;;21.70;99.90;;;21.57;49.04;101109.16;5032780;28;19929;-64
2021/05/17 07:54:04;;;;;;;;;;;21.80;99.90;;;21.62;48.38;101091.56;5032538;28;19925;-65
2021/05/17 07:56:31;;;;;;;;;;;21.80;99.90;;;21.56;47.73;101091.03;5031737;28;20375;-64
2021/05/17 07:58:59;;;;;;;;;;;21.80;99.90;;;21.66;48.96;101101.50;5032312;28;19933;-64
2021/05/17 08:01:26;;;;;;;;;;;21.80;99.90;;;21.83;48.05;101103.06;5032469;28;19929;-64
2021/05/17 08:03:54;;;;;;;;;;;22.00;99.90;;;21.94;47.78;101109.66;5032514;28;19947;-64
2021/05/17 08:06:23;;;;;;;;;;;22.10;99.90;;;22.21;47.71;101107.88;5031656;28;19928;-64
2021/05/17 08:08:50;;;;;;;;;;;22.30;99.90;;;22.15;45.40;101101.06;5031987;28;20384;-64
2021/05/17 08:11:19;;;;;;;;;;;22.40;99.90;;;22.25;46.46;101106.78;5032340;28;19932;-64
2021/05/17 08:13:46;;;;;;;;;;;22.50;99.90;;;22.52;46.24;101110.50;5032451;28;19944;-64
2021/05/17 08:16:15;;;;;;;;;;;22.70;99.90;;;22.59;45.63;101105.13;5031505;28;19925;-64
2021/05/17 08:18:43;;;;;;;;;;;22.70;99.90;;;22.66;44.49;101102.53;5031933;28;19932;-64
2021/05/17 08:21:10;;;;;;;;;;;22.90;99.90;;;22.67;43.48;101103.34;5032405;28;19925;-64
2021/05/17 08:23:38;;;;;;;;;;;22.90;99.90;;;22.94;44.47;101109.75;5032212;28;20272;-64
2021/05/17 08:26:07;;;;;;;;;;;23.00;99.90;;;22.84;45.81;101103.69;5031416;28;20367;-64
2021/05/17 08:28:35;;;;;;;;;;;23.10;99.90;;;22.89;42.98;101096.28;5031733;28;19925;-64
2021/05/17 08:31:03;;;;;;;;;;;23.20;99.90;;;23.06;44.33;101098.53;5032193;28;19925;-65
2021/05/17 08:33:30;;;;;;;;;;;23.20;99.90;;;23.13;41.62;101096.69;5036395;28;19945;-64
2021/05/17 08:35:58;;;;;;;;;;;23.40;99.90;;;23.19;43.49;101086.94;5038205;28;19960;-64
2021/05/17 08:38:25;;;;;;;;;;;23.50;99.90;;;23.29;44.03;101097.38;5038372;28;19925;-64
2021/05/17 08:40:53;;;;;;;;;;;23.60;99.90;;;23.39;43.10;101102.31;5038854;28;20340;-64
2021/05/17 08:43:20;;;;;;;;;;;23.60;99.90;;;23.60;44.96;101093.56;5038662;28;19925;-65
2021/05/17 08:45:48;;;;;;;;;;;23.80;99.90;;;23.77;42.26;101092.25;5038211;28;20387;-64
2021/05/17 08:48:15;;;;;;;;;;;24.10;99.90;;;23.65;42.55;101098.00;5038040;28;19925;-64
2021/05/17 08:50:42;;;;;;;;;;;24.10;99.90;;;23.67;43.18;101087.38;5038765;28;19932;-64
2021/05/17 08:53:12;;;;;;;;;;;24.00;99.90;;;23.73;42.75;101097.72;5038632;28;19936;-64
2021/05/17 08:55:40;;;;;;;;;;;24.10;99.90;;;24.09;42.92;101101.78;5038005;28;20295;-65
2021/05/17 08:58:07;;;;;;;;;;;24.30;99.90;;;24.01;43.05;101113.91;5037774;28;19925;-64
2021/05/17 09:00:35;;;;;;;;;;;24.30;99.90;;;23.85;42.57;101105.00;5038721;28;19971;-64
2021/05/17 09:03:03;;;;;;;;;;;;;;;23.93;43.09;101110.25;5038685;28;19933;-65
2021/05/17 09:05:32;;;;;;;;;;;24.30;99.90;;;23.99;40.94;101102.44;5038217;28;19977;-65
2021/05/17 09:08:01;;;;;;;;;;;24.40;99.90;;;24.12;41.25;101108.56;5037434;28;19978;-63
2021/05/17 09:10:31;;;;;;;;;;;24.40;99.90;;;24.15;42.90;101105.84;5038393;28;20379;-63
2021/05/17 09:13:01;;;;;;;;;;;24.50;99.90;;;24.08;41.43;101104.91;5038564;28;20027;-64
2021/05/17 09:15:35;;;;;;;;;;;24.50;99.90;;;24.08;41.14;101105.72;5038319;28;20033;-65
2021/05/17 09:18:06;;;;;;;;;;;24.50;99.90;;;24.10;41.53;101105.34;5037722;28;19925;-65
2021/05/17 09:20:37;;;;;;;;;;;24.50;99.90;;;23.90;41.00;101099.94;5038295;28;19975;-64
2021/05/17 09:23:14;;;;;;;;;;;24.40;99.90;;;23.68;42.11;101106.31;5038431;28;20359;-64
2021/05/17 09:25:57;;;;;;;;;;;24.10;99.90;;;23.73;41.04;101108.78;5037733;28;20371;-62
2021/05/17 09:28:25;;;;;;;;;;;24.10;99.90;;;23.99;41.41;101109.91;5038179;28;19932;-65
2021/05/17 09:31:02;;;;;;;;;;;24.30;99.90;;;24.15;40.89;101110.56;5038446;28;19925;-64
2021/05/17 09:33:41;;;;;;;;;;;24.50;99.90;;;24.20;41.76;101113.78;5038389;28;19964;-64
2021/05/17 09:36:28;;;;;;;;;;;24.60;99.90;;;24.15;45.19;101111.38;5037525;28;19933;-64
2021/05/17 09:38:59;;;;;;;;;;;24.70;99.90;;;23.65;48.43;101120.09;5037751;28;19932;-64
2021/05/17 09:41:41;;;;;;;;;;;24.40;99.90;;;23.41;48.56;101124.00;5038265;28;20389;-64
2021/05/17 09:44:08;;;;;;;;;;;24.20;99.90;;;23.45;49.63;101118.56;5036405;28;20379;-64
2021/05/17 09:46:58;;;;;;;;;;;24.10;99.90;;;23.48;50.48;101117.81;5034087;28;20334;-64
2021/05/17 09:49:34;;;;;;;;;;;24.10;99.90;;;23.51;49.62;101120.63;5034871;28;19978;-64
2021/05/17 09:52:12;;;;;;;;;;;23.90;99.90;;;23.21;49.93;101134.31;5034833;28;20291;-64
2021/05/17 09:54:51;;;;;;;;;;;23.90;99.90;;;23.02;50.88;101142.59;5034847;28;20024;-64
2021/05/17 09:57:18;;;;;;;;;;;23.70;99.90;;;22.99;51.11;101135.06;5033986;28;19960;-64
2021/05/17 09:59:47;;;;;;;;;;;23.60;99.90;;;23.16;52.62;101142.09;5034775;28;19932;-64
2021/05/17 10:02:33;;;;;;;;;;;23.70;99.90;;;23.27;48.67;101134.78;5034920;28;19932;-63
2021/05/17 10:05:18;;;;;;;;;;;23.80;99.90;;;23.38;49.92;101138.50;5034726;28;19980;-64
2021/05/17 10:07:47;;;;;;;;;;;23.90;99.90;;;23.30;50.26;101137.63;5032656;28;19979;-65
2021/05/17 10:10:14;;;;;;;;;;;23.90;99.90;;;23.09;51.29;101144.72;5034390;28;19925;-65
2021/05/17 10:12:42;;;;;;;;;;;23.80;99.90;;;23.06;51.75;101137.97;5034518;28;19925;-65
2021/05/17 10:15:11;;;;;;;;;;;23.70;99.90;;;23.21;52.12;101139.81;5034491;28;19929;-62
2021/05/17 10:17:39;;;;;;;;;;;23.80;99.90;;;23.17;48.83;101138.16;5033613;28;19936;-65
2021/05/17 10:20:08;;;;;;;;;;;23.70;99.90;;;23.10;50.74;101140.78;5034236;28;19925;-65
2021/05/17 10:22:37;;;;;;;;;;;23.70;99.90;;;23.04;51.31;101139.50;5034127;28;19932;-64
2021/05/17 10:25:07;;;;;;;;;;;23.70;99.90;;;23.13;53.23;101135.31;5034122;28;19925;-64
2021/05/17 10:27:40;;;;;;;;;;;23.70;99.90;;;23.09;52.55;101141.94;5033199;28;20329;-65
2021/05/17 10:30:10;;;;;;;;;;;23.70;99.90;;;22.95;53.18;101138.94;5034190;28;20566;-65
2021/05/17 10:32:42;;;;;;;;;;;23.60;99.90;;;23.00;51.07;101142.19;5034276;28;19925;-64
2021/05/17 10:35:12;;;;;;;;;;;23.60;99.90;;;23.03;53.39;101144.22;5034093;28;19929;-65
2021/05/17 10:37:40;;;;;;;;;;;23.60;99.90;;;22.94;53.26;101140.88;5033226;28;19929;-64
2021/05/17 10:40:14;;;;;;;;;;;23.60;99.90;;;22.73;53.59;101146.00;5033940;28;19925;-63
2021/05/17 10:42:49;;;;;;;;;;;23.40;99.90;;;22.81;53.34;101134.72;5033901;28;19929;-62
2021/05/17 10:48:20;;;;;;;;;;;23.40;99.90;;;23.07;52.55;101136.00;5033073;28;19932;-64
2021/05/17 10:50:49;;;;;;;;;;;23.60;99.90;;;23.00;50.88;101128.41;5034014;28;19925;-63
2021/05/17 10:53:42;;;;;;;;;;;23.60;99.90;;;23.27;51.83;101132.03;5033912;28;19921;-63
2021/05/17 10:56:10;;;;;;;;;;;23.70;99.90;;;23.31;50.86;101127.38;5032858;28;20367;-64
2021/05/17 11:02:09;;;;;;;;;;;23.80;99.90;;;23.38;51.55;101119.19;5033992;28;19932;-64
2021/05/17 11:04:37;;;;;;;;;;;23.80;99.90;;;23.53;51.92;101117.53;5031485;28;19933;-64
2021/05/17 11:07:28;;;;;;;;;;;24.20;99.90;;;23.68;51.37;101117.34;5032567;28;19995;-64
2021/05/17 11:10:11;;;;;;;;;;;24.10;99.90;;;23.67;51.88;101121.31;5030399;28;19925;-64
2021/05/17 11:13:09;;;;;;;;;;;24.20;99.90;;;23.90;51.87;101107.44;5033367;28;19998;-64
2021/05/17 11:15:44;;;;;;;;;;;24.40;99.90;;;24.13;50.22;101116.47;5033273;28;19925;-64
2021/05/17 11:18:23;;;;;;;;;;;24.60;99.90;;;24.18;50.15;101104.28;5032594;28;20002;-64
2021/05/17 11:20:51;;;;;;;;;;;;;;;24.30;50.53;101110.38;5033193;28;19925;-65
2021/05/17 11:23:21;;;;;;;;;;;24.90;99.90;;;24.33;48.98;101117.13;5033437;28;19921;-65
2021/05/17 11:25:52;;;;;;;;;;;24.90;99.90;;;24.11;49.54;101109.72;5032801;28;19925;-64
2021/05/17 11:28:55;;;;;;;;;;;24.80;99.90;;;24.13;50.83;101112.91;5032365;28;19947;-64
2021/05/17 11:31:35;;;;;;;;;;;24.70;99.90;;;23.97;49.85;101104.78;5033250;28;19925;-64
2021/05/17 11:34:07;;;;;;;;;;;24.70;99.90;;;23.67;50.53;101107.50;5033157;28;19925;-64
2021/05/17 11:36:35;;;;;;;;;;;24.40;99.90;;;23.51;51.17;101101.31;5032298;28;19925;-64
2021/05/17 11:39:06;;;;;;;;;;;24.20;99.90;;;23.23;51.76;101109.88;5032477;28;19936;-64
2021/05/17 11:41:35;;;;;;;;;;;23.90;99.90;;;23.14;51.32;101111.28;5033024;28;19975;-64